createdAt,value
2023-03-11T00:02:24.037Z,98258.63
2023-03-11T00:04:55.929Z,98264.31
2023-03-11T00:07:27.458Z,98282.84
2023-03-11T00:09:59.341Z,98301.25
2023-03-11T00:12:30.844Z,98309.25
2023-03-11T00:15:02.522Z,98329.91
2023-03-11T00:17:34.066Z,98335.88
2023-03-11T00:20:05.815Z,98341.63
2023-03-11T00:22:37.396Z,98342.66
2023-03-11T00:25:09.243Z,98346.50
2023-03-11T00:27:40.778Z,98355.63
2023-03-11T00:30:12.816Z,98362.09
2023-03-11T00:32:44.420Z,98364.34
2023-03-11T00:35:16.202Z,98371.19
2023-03-11T00:37:47.720Z,98374.03
2023-03-11T00:40:19.605Z,98375.28
2023-03-11T00:42:51.106Z,98380.56
2023-03-11T00:45:22.966Z,98387.25
2023-03-11T00:47:54.481Z,98390.50
2023-03-11T00:50:26.332Z,98400.34
2023-03-11T00:52:57.852Z,98407.25
2023-03-11T00:55:29.419Z,98403.84
2023-03-11T00:58:01.008Z,98421.19
2023-03-11T01:00:32.546Z,98422.38
2023-03-11T01:03:04.103Z,98437.91
2023-03-11T01:05:35.989Z,98443.34
2023-03-11T01:08:07.568Z,98445.78
2023-03-11T01:10:39.600Z,98449.41
2023-03-11T01:13:11.202Z,98463.31
2023-03-11T01:15:42.920Z,98459.53
2023-03-11T01:18:15.572Z,98477.84
2023-03-11T01:20:47.412Z,98482.53
2023-03-11T01:23:18.920Z,98483.94
2023-03-11T01:25:50.511Z,98496.22
2023-03-11T01:28:22.040Z,98500.28
2023-03-11T01:30:53.913Z,98518.03
2023-03-11T01:33:25.443Z,98523.06
2023-03-11T01:35:57.337Z,98531.13
2023-03-11T01:38:28.895Z,98532.13
2023-03-11T01:41:00.442Z,98550.69
2023-03-11T01:43:31.972Z,98549.06
2023-03-11T01:46:03.751Z,98563.00
2023-03-11T01:48:35.357Z,98574.66
2023-03-11T01:51:07.183Z,98585.16
2023-03-11T01:53:38.680Z,98591.00
2023-03-11T01:56:10.518Z,98596.25
2023-03-11T01:58:42.062Z,98602.06
2023-03-11T02:01:13.942Z,98611.97
2023-03-11T02:03:45.467Z,98621.25
2023-03-11T02:06:17.354Z,98633.75
2023-03-11T02:08:48.915Z,98630.31
2023-03-11T02:11:20.872Z,98648.47
2023-03-11T02:13:52.441Z,98666.59
2023-03-11T02:16:24.290Z,98663.78
2023-03-11T02:18:55.825Z,98670.25
2023-03-11T02:21:27.405Z,98689.38
2023-03-11T02:23:58.961Z,98701.69
2023-03-11T02:26:30.544Z,98708.53
2023-03-11T02:29:02.062Z,98715.38
2023-03-11T02:31:33.725Z,98734.34
2023-03-11T02:34:05.295Z,98739.16
2023-03-11T02:36:37.157Z,98758.53
2023-03-11T02:39:08.672Z,98544.06
2023-03-11T02:41:40.409Z,98775.47
2023-03-11T02:44:11.900Z,98774.66
2023-03-11T02:46:43.944Z,98777.47
2023-03-11T02:49:15.516Z,98797.22
2023-03-11T02:51:47.343Z,98803.47
2023-03-11T02:54:18.861Z,98809.31
2023-03-11T02:56:50.638Z,98822.22
2023-03-11T02:59:22.146Z,98843.19
2023-03-11T03:01:53.690Z,98838.97
2023-03-11T03:04:25.243Z,98841.38
2023-03-11T03:06:57.312Z,98860.94
2023-03-11T03:09:28.815Z,98871.03
2023-03-11T03:12:00.644Z,98874.06
2023-03-11T03:14:32.156Z,98882.13
2023-03-11T03:17:04.215Z,98903.28
2023-03-11T03:19:35.788Z,98911.34
2023-03-11T03:22:07.480Z,98920.41
2023-03-11T03:24:39.020Z,98929.69
2023-03-11T03:27:10.857Z,98934.31
2023-03-11T03:29:42.360Z,98949.63
2023-03-11T03:32:14.192Z,98960.31
2023-03-11T03:34:45.708Z,98964.13
2023-03-11T03:37:17.568Z,98974.81
2023-03-11T03:39:49.089Z,98990.53
2023-03-11T03:42:20.972Z,98995.16
2023-03-11T03:44:53.032Z,99011.09
2023-03-11T03:47:24.860Z,99032.25
2023-03-11T03:49:56.368Z,99034.88
2023-03-11T03:52:27.887Z,99044.34
2023-03-11T03:54:59.381Z,99047.78
2023-03-11T03:57:30.927Z,99055.06
2023-03-11T04:00:02.451Z,99066.31
2023-03-11T04:02:34.008Z,99068.94
2023-03-11T04:05:05.537Z,99073.97
2023-03-11T04:10:26.452Z,99094.38
2023-03-11T04:12:57.972Z,99105.41
2023-03-11T04:15:29.462Z,99118.94
2023-03-11T04:18:00.976Z,99123.19
2023-03-11T04:20:32.489Z,99123.19
2023-03-11T04:23:03.988Z,99120.56
2023-03-11T04:25:35.721Z,99128.25
2023-03-11T04:28:07.269Z,99143.78
2023-03-11T04:30:39.145Z,99144.78
2023-03-11T04:33:10.705Z,99149.22
2023-03-11T04:35:42.484Z,99154.44
2023-03-11T04:38:14.006Z,99162.94
2023-03-11T04:40:45.894Z,99182.47
2023-03-11T04:43:17.425Z,99171.78
2023-03-11T04:45:48.992Z,99180.28
2023-03-11T04:48:20.534Z,99195.19
2023-03-11T04:50:52.459Z,99202.66
2023-03-11T04:53:24.001Z,99208.91
2023-03-11T04:55:55.919Z,99212.16
2023-03-11T04:58:27.432Z,99220.63
2023-03-11T05:00:59.309Z,99223.44
2023-03-11T05:03:30.877Z,99224.22
2023-03-11T05:06:02.784Z,99245.41
2023-03-11T05:08:34.326Z,99257.91
2023-03-11T05:11:06.168Z,99249.84
2023-03-11T05:13:37.862Z,99273.25
2023-03-11T05:16:09.755Z,99275.44
2023-03-11T05:18:41.283Z,99277.50
2023-03-11T05:21:13.051Z,99294.03
2023-03-11T05:23:45.359Z,99306.31
2023-03-11T05:26:17.215Z,99302.53
2023-03-11T05:28:48.758Z,99311.81
2023-03-11T05:31:20.572Z,99320.88
2023-03-11T05:33:52.119Z,99322.50
2023-03-11T05:36:24.034Z,99336.22
2023-03-11T05:38:55.641Z,99339.22
2023-03-11T05:41:27.172Z,99342.66
2023-03-11T05:43:58.699Z,99357.81
2023-03-11T05:46:30.327Z,99354.19
2023-03-11T05:49:01.910Z,99363.50
2023-03-11T05:51:33.461Z,99372.72
2023-03-11T05:54:07.235Z,99381.31
2023-03-11T05:56:39.138Z,99387.19
2023-03-11T05:59:10.696Z,99394.25
2023-03-11T06:01:43.081Z,99395.13
2023-03-11T06:04:14.739Z,99392.69
2023-03-11T06:06:46.680Z,99395.94
2023-03-11T06:09:18.193Z,99367.00
2023-03-11T06:11:50.157Z,99408.34
2023-03-11T06:14:21.642Z,99425.88
2023-03-11T06:16:53.461Z,99423.28
2023-03-11T06:19:24.925Z,99432.47
2023-03-11T06:21:56.758Z,99433.13
2023-03-11T06:24:28.319Z,99440.00
2023-03-11T06:26:59.867Z,99439.09
2023-03-11T06:29:31.343Z,99453.72
2023-03-11T06:32:02.983Z,99460.59
2023-03-11T06:34:34.466Z,99467.78
2023-03-11T06:37:06.339Z,99481.53
2023-03-11T06:39:37.816Z,99481.34
2023-03-11T06:42:09.304Z,99487.78
2023-03-11T06:44:40.835Z,99493.22
2023-03-11T06:47:12.725Z,99500.19
2023-03-11T06:49:44.265Z,99514.13
2023-03-11T06:52:16.041Z,99515.94
2023-03-11T06:54:47.565Z,99525.25
2023-03-11T06:57:19.367Z,99539.00
2023-03-11T06:59:50.881Z,99539.56
2023-03-11T07:02:22.735Z,99548.97
2023-03-11T07:04:54.250Z,99555.50
2023-03-11T07:07:26.290Z,99556.84
2023-03-11T07:09:57.958Z,99561.28
2023-03-11T07:12:29.956Z,99565.44
2023-03-11T07:15:01.500Z,99569.22
2023-03-11T07:17:32.987Z,99573.22
2023-03-11T07:20:04.578Z,99587.59
2023-03-11T07:22:36.569Z,99599.19
2023-03-11T07:25:08.080Z,99603.69
2023-03-11T07:27:39.893Z,99614.34
2023-03-11T07:30:11.426Z,99609.41
2023-03-11T07:32:43.266Z,99634.63
2023-03-11T07:35:15.171Z,99634.44
2023-03-11T07:37:47.057Z,99626.53
2023-03-11T07:40:18.702Z,99632.41
2023-03-11T07:42:50.638Z,99652.03
2023-03-11T07:45:22.122Z,99655.66
2023-03-11T07:47:53.947Z,99651.78
2023-03-11T07:50:25.489Z,99677.28
2023-03-11T07:52:57.144Z,99675.66
2023-03-11T07:55:28.715Z,99687.72
2023-03-11T07:58:00.223Z,99680.91
2023-03-11T08:00:31.730Z,99687.59
2023-03-11T08:03:03.211Z,99699.81
2023-03-11T08:05:34.711Z,99704.19
2023-03-11T08:08:06.575Z,99706.44
2023-03-11T08:10:38.067Z,99720.38
2023-03-11T08:13:09.600Z,99721.16
2023-03-11T08:15:41.109Z,99728.41
2023-03-11T08:18:13.342Z,99736.56
2023-03-11T08:20:45.744Z,99735.06
2023-03-11T08:23:17.596Z,99749.31
2023-03-11T08:25:49.108Z,99751.06
2023-03-11T08:28:20.592Z,99761.41
2023-03-11T08:30:52.500Z,99773.19
2023-03-11T08:33:24.032Z,99776.25
2023-03-11T08:35:55.576Z,99769.16
2023-03-11T08:38:27.425Z,99787.56
2023-03-11T08:40:59.034Z,99780.09
2023-03-11T08:43:30.530Z,99796.75
2023-03-11T08:46:02.466Z,99795.72
2023-03-11T08:48:34.099Z,99809.63
2023-03-11T08:51:05.811Z,99807.09
2023-03-11T08:53:37.752Z,99811.25
2023-03-11T08:56:09.284Z,99812.47
2023-03-11T08:58:40.810Z,99829.19
2023-03-11T09:01:12.612Z,99827.06
2023-03-11T09:03:44.121Z,99837.16
2023-03-11T09:06:16.076Z,99838.63
2023-03-11T09:08:47.635Z,99842.25
2023-03-11T09:11:19.541Z,99851.75
2023-03-11T09:13:51.025Z,99851.75
2023-03-11T09:16:22.908Z,99855.53
2023-03-11T09:18:54.477Z,99857.53
2023-03-11T09:21:26.299Z,99871.94
2023-03-11T09:23:57.857Z,99862.53
2023-03-11T09:26:29.387Z,99865.50
2023-03-11T09:29:00.871Z,99861.16
2023-03-11T09:31:32.379Z,99872.91
2023-03-11T09:34:03.916Z,99871.19
2023-03-11T09:36:35.931Z,99875.06
2023-03-11T09:39:07.461Z,99879.09
2023-03-11T09:41:51.525Z,99884.78
2023-03-11T09:44:29.369Z,99896.38
2023-03-11T09:47:01.396Z,99893.59
2023-03-11T09:49:32.896Z,99894.25
2023-03-11T09:52:04.588Z,99907.59
2023-03-11T09:54:36.064Z,99909.84
2023-03-11T09:57:07.838Z,99910.06
2023-03-11T09:59:39.422Z,99917.38
2023-03-11T10:02:11.417Z,99924.78
2023-03-11T10:04:44.046Z,99922.38
2023-03-11T10:07:18.316Z,99923.19
2023-03-11T10:09:49.800Z,99935.56
2023-03-11T10:12:21.777Z,99946.16
2023-03-11T10:14:54.275Z,99950.06
2023-03-11T10:17:26.028Z,99959.31
2023-03-11T10:19:57.522Z,99956.41
2023-03-11T10:22:29.157Z,99958.69
2023-03-11T10:25:00.736Z,99965.56
2023-03-11T10:27:33.003Z,99961.75
2023-03-11T10:30:04.567Z,99975.06
2023-03-11T10:32:36.496Z,99973.19
2023-03-11T10:35:08.004Z,99977.03
2023-03-11T10:37:49.454Z,99985.56
2023-03-11T10:40:23.791Z,99977.84
2023-03-11T10:42:55.580Z,99973.72
2023-03-11T10:45:27.144Z,99992.84
2023-03-11T10:47:59.170Z,99984.66
2023-03-11T10:50:30.682Z,99986.31
2023-03-11T10:53:02.560Z,99996.06
2023-03-11T10:55:34.080Z,99995.63
2023-03-11T10:58:05.895Z,99997.66
2023-03-11T11:00:37.426Z,99998.03
2023-03-11T11:03:09.439Z,100005.38
2023-03-11T11:05:41.004Z,100006.19
2023-03-11T11:08:12.995Z,100010.19
2023-03-11T11:10:44.694Z,100008.94
2023-03-11T11:13:17.464Z,100009.28
2023-03-11T11:15:49.434Z,100020.88
2023-03-11T11:18:21.269Z,100010.31
2023-03-11T11:20:52.768Z,100020.97
2023-03-11T11:23:24.594Z,100022.69
2023-03-11T11:25:56.103Z,100025.69
2023-03-11T11:28:28.442Z,100024.97
2023-03-11T11:30:59.977Z,100028.56
2023-03-11T11:33:31.672Z,100027.41
2023-03-11T11:36:03.238Z,100030.38
2023-03-11T11:38:34.784Z,100031.59
2023-03-11T11:41:06.304Z,100033.41
2023-03-11T11:43:38.119Z,100043.69
2023-03-11T11:46:09.652Z,100042.78
2023-03-11T11:48:41.721Z,100039.59
2023-03-11T11:51:13.431Z,100035.03
2023-03-11T11:53:46.496Z,100042.09
2023-03-11T11:56:18.036Z,100044.47
2023-03-11T11:58:49.839Z,100044.69
2023-03-11T12:01:21.427Z,100034.41
2023-03-11T12:03:53.312Z,100042.06
2023-03-11T12:06:24.921Z,100038.59
2023-03-11T12:08:56.627Z,100040.84
2023-03-11T12:11:28.255Z,99880.94
2023-03-11T12:14:03.043Z,100041.44
2023-03-11T12:16:34.571Z,100039.66
2023-03-11T12:19:06.183Z,100045.72
2023-03-11T12:21:37.987Z,100043.97
2023-03-11T12:24:09.488Z,100047.75
2023-03-11T12:26:41.349Z,100052.31
2023-03-11T12:29:15.732Z,100060.31
2023-03-11T12:31:48.029Z,100056.97
2023-03-11T12:34:19.644Z,100066.84
2023-03-11T12:36:51.499Z,100064.09
2023-03-11T12:39:23.707Z,100067.84
2023-03-11T12:41:56.010Z,100076.88
2023-03-11T12:44:28.772Z,100087.16
2023-03-11T12:47:00.399Z,100083.13
2023-03-11T12:49:32.078Z,100080.59
2023-03-11T12:52:03.871Z,100082.41
2023-03-11T12:54:35.436Z,100090.38
2023-03-11T12:57:07.560Z,100079.31
2023-03-11T12:59:39.060Z,100086.75
2023-03-11T13:02:10.877Z,100082.53
2023-03-11T13:04:42.397Z,100081.69
2023-03-11T13:07:14.371Z,100090.00
2023-03-11T13:09:46.003Z,100083.22
2023-03-11T13:12:17.860Z,100084.34
2023-03-11T13:14:49.359Z,100094.94
2023-03-11T13:17:21.207Z,100097.91
2023-03-11T13:19:52.754Z,100090.63
2023-03-11T13:22:24.428Z,100099.59
2023-03-11T13:24:55.928Z,100094.47
2023-03-11T13:27:27.734Z,100107.50
2023-03-11T13:29:59.441Z,100119.97
2023-03-11T13:32:31.046Z,100123.75
2023-03-11T13:35:02.566Z,100130.16
2023-03-11T13:37:34.122Z,100137.94
2023-03-11T13:40:05.623Z,100143.97
2023-03-11T13:42:37.454Z,100137.41
2023-03-11T13:45:08.951Z,100130.22
2023-03-11T13:47:40.746Z,100153.78
2023-03-11T13:50:12.230Z,100149.00
2023-03-11T13:52:44.083Z,100157.47
2023-03-11T13:55:15.560Z,100159.22
2023-03-11T13:57:47.035Z,100164.56
2023-03-11T14:00:18.589Z,100169.38
2023-03-11T14:02:51.378Z,100162.09
2023-03-11T14:05:22.862Z,100168.50
2023-03-11T14:07:54.409Z,100172.22
2023-03-11T14:10:26.011Z,100169.81
2023-03-11T14:12:57.836Z,100175.59
2023-03-11T14:15:29.325Z,100161.94
2023-03-11T14:18:00.830Z,100170.56
2023-03-11T14:20:32.431Z,100168.66
2023-03-11T14:23:04.401Z,100168.16
2023-03-11T14:25:38.304Z,100177.41
2023-03-11T14:28:09.910Z,100174.88
2023-03-11T14:30:41.412Z,100174.72
2023-03-11T14:33:13.233Z,100175.84
2023-03-11T14:35:44.732Z,100176.66
2023-03-11T14:38:16.575Z,100187.66
2023-03-11T14:40:50.194Z,100183.13
2023-03-11T14:43:22.892Z,100192.47
2023-03-11T14:45:54.421Z,100185.09
2023-03-11T14:48:26.393Z,100194.03
2023-03-11T14:50:57.944Z,100197.91
2023-03-11T14:53:29.438Z,100206.66
2023-03-11T14:56:00.958Z,100195.56
2023-03-11T14:58:34.509Z,100194.88
2023-03-11T15:01:06.067Z,100193.22
2023-03-11T15:03:38.104Z,100190.88
2023-03-11T15:06:09.711Z,100196.94
2023-03-11T15:08:41.556Z,100192.25
2023-03-11T15:11:13.181Z,100200.03
2023-03-11T15:13:46.648Z,100204.63
2023-03-11T15:16:18.163Z,100200.63
2023-03-11T15:18:49.850Z,100202.69
2023-03-11T15:21:21.355Z,100203.69
2023-03-11T15:23:53.282Z,100198.63
2023-03-11T15:26:24.877Z,100201.50
2023-03-11T15:28:56.674Z,100214.53
2023-03-11T15:31:31.273Z,100213.63
2023-03-11T15:34:03.172Z,100221.94
2023-03-11T15:36:34.663Z,100220.44
2023-03-11T15:39:06.504Z,100221.53
2023-03-11T15:41:38.034Z,100222.81
2023-03-11T15:44:09.894Z,100222.28
2023-03-11T15:46:41.433Z,100214.31
2023-03-11T15:49:13.283Z,100228.47
2023-03-11T15:51:44.782Z,100245.81
2023-03-11T15:54:16.670Z,100238.09
2023-03-11T15:56:48.224Z,100241.25
2023-03-11T15:59:20.084Z,100246.16
2023-03-11T16:01:51.582Z,100243.00
2023-03-11T16:04:23.159Z,100241.44
2023-03-11T16:07:07.058Z,100242.22
2023-03-11T16:09:39.539Z,100254.34
2023-03-11T16:12:11.075Z,100251.59
2023-03-11T16:14:42.963Z,100266.44
2023-03-11T16:17:15.630Z,100267.09
2023-03-11T16:19:49.586Z,100267.81
2023-03-11T16:22:21.216Z,100271.53
2023-03-11T16:24:52.709Z,100278.44
2023-03-11T16:27:24.240Z,100265.47
2023-03-11T16:29:55.766Z,100273.31
2023-03-11T16:32:27.387Z,100278.13
2023-03-11T16:34:59.182Z,100280.66
2023-03-11T16:37:30.693Z,100284.28
2023-03-11T16:40:02.606Z,100295.47
2023-03-11T16:42:34.098Z,100293.72
2023-03-11T16:45:05.870Z,100292.25
2023-03-11T16:47:37.569Z,100306.28
2023-03-11T16:50:09.483Z,100307.63
2023-03-11T16:52:41.102Z,100296.81
2023-03-11T16:55:12.947Z,100299.97
2023-03-11T16:57:45.007Z,100313.78
2023-03-11T17:00:18.360Z,100309.22
2023-03-11T17:02:50.200Z,100315.81
2023-03-11T17:05:21.763Z,100311.59
2023-03-11T17:07:53.684Z,100318.84
2023-03-11T17:10:25.240Z,100316.38
2023-03-11T17:12:57.042Z,100325.13
2023-03-11T17:15:28.532Z,100321.22
2023-03-11T17:18:00.354Z,100333.00
2023-03-11T17:20:31.858Z,100337.31
2023-03-11T17:23:03.792Z,100339.28
2023-03-11T17:25:35.286Z,100342.78
2023-03-11T17:28:06.850Z,100339.50
2023-03-11T17:30:39.451Z,100340.66
2023-03-11T17:33:11.214Z,100334.91
2023-03-11T17:35:42.712Z,100341.34
2023-03-11T17:38:16.390Z,100344.28
2023-03-11T17:40:48.089Z,100345.59
2023-03-11T17:43:19.916Z,100352.50
2023-03-11T17:45:51.492Z,100355.44
2023-03-11T17:48:23.544Z,100151.31
2023-03-11T17:50:55.016Z,100351.03
2023-03-11T17:53:26.863Z,100356.28
2023-03-11T17:55:58.397Z,100361.22
2023-03-11T17:58:29.913Z,100363.00
2023-03-11T18:01:01.418Z,100360.72
2023-03-11T18:03:32.993Z,100371.41
2023-03-11T18:06:04.510Z,100366.66
2023-03-11T18:08:36.053Z,100370.25
2023-03-11T18:11:07.932Z,100373.22
2023-03-11T18:13:39.638Z,100378.63
2023-03-11T18:16:11.146Z,100377.16
2023-03-11T18:18:42.979Z,100376.97
2023-03-11T18:21:14.499Z,100380.56
2023-03-11T18:23:46.570Z,100378.44
2023-03-11T18:26:18.064Z,100378.78
2023-03-11T18:28:49.859Z,100381.72
2023-03-11T18:31:21.438Z,100378.28
2023-03-11T18:33:53.112Z,100383.03
2023-03-11T18:36:24.655Z,100380.75
2023-03-11T18:38:57.210Z,100391.88
2023-03-11T18:41:28.734Z,100393.19
2023-03-11T18:44:00.479Z,100396.81
2023-03-11T18:46:32.047Z,100386.63
2023-03-11T18:49:04.082Z,100384.47
2023-03-11T18:51:35.550Z,100387.59
2023-03-11T18:54:07.457Z,100391.34
2023-03-11T18:56:38.959Z,100393.16
2023-03-11T18:59:12.516Z,100400.34
2023-03-11T19:01:44.157Z,100395.09
2023-03-11T19:04:16.014Z,100400.50
2023-03-11T19:06:48.065Z,100407.38
2023-03-11T19:09:19.933Z,100405.44
2023-03-11T19:11:51.466Z,100397.06
2023-03-11T19:14:23.330Z,100402.16
2023-03-11T19:16:54.951Z,100392.31
2023-03-11T19:19:26.581Z,100398.69
2023-03-11T19:21:58.164Z,100404.25
2023-03-11T19:24:29.680Z,100401.63
2023-03-11T19:27:01.199Z,100399.63
2023-03-11T19:29:32.758Z,100405.19
2023-03-11T19:32:04.274Z,100408.78
2023-03-11T19:34:36.201Z,100403.69
2023-03-11T19:37:07.978Z,100400.72
2023-03-11T19:39:39.784Z,100404.19
2023-03-11T19:42:11.281Z,100396.78
2023-03-11T19:44:42.815Z,100397.94
2023-03-11T19:47:14.354Z,100404.81
2023-03-11T19:49:45.871Z,100414.31
2023-03-11T19:52:17.484Z,100419.56
2023-03-11T19:54:49.388Z,100415.28
2023-03-11T19:57:20.961Z,100411.34
2023-03-11T19:59:53.174Z,100410.03
2023-03-11T20:02:24.825Z,100409.19
2023-03-11T20:04:56.842Z,100413.94
2023-03-11T20:07:28.389Z,100409.84
2023-03-11T20:10:00.287Z,100406.22
2023-03-11T20:12:31.912Z,100407.22
2023-03-11T20:15:03.461Z,100409.84
2023-03-11T20:17:34.953Z,100413.59
2023-03-11T20:20:06.636Z,100410.00
2023-03-11T20:22:38.215Z,100411.94
2023-03-11T20:25:09.782Z,100415.53
2023-03-11T20:27:41.450Z,100416.88
2023-03-11T20:30:13.248Z,100411.63
2023-03-11T20:32:44.766Z,100404.44
2023-03-11T20:35:16.708Z,100415.75
2023-03-11T20:37:48.509Z,100420.16
2023-03-11T20:40:20.239Z,100418.19
2023-03-11T20:42:51.812Z,100423.44
2023-03-11T20:45:23.845Z,100421.78
2023-03-11T20:47:55.758Z,100425.56
2023-03-11T20:50:27.365Z,100418.19
2023-03-11T20:52:58.930Z,100420.16
2023-03-11T20:55:30.467Z,100427.50
2023-03-11T20:58:02.047Z,100412.22
2023-03-11T21:00:33.739Z,100427.94
2023-03-11T21:03:05.335Z,100419.75
2023-03-11T21:05:37.022Z,100416.78
2023-03-11T21:08:08.563Z,100415.44
2023-03-11T21:10:40.099Z,100411.19
2023-03-11T21:13:11.615Z,100413.13
2023-03-11T21:15:43.381Z,100421.16
2023-03-11T21:18:14.950Z,100413.44
2023-03-11T21:20:46.468Z,100409.66
2023-03-11T21:23:18.020Z,100421.41
2023-03-11T21:25:49.598Z,100409.16
2023-03-11T21:28:21.087Z,100415.66
2023-03-11T21:30:53.097Z,100420.19
2023-03-11T21:33:24.864Z,100418.28
2023-03-11T21:35:57.018Z,100415.28
2023-03-11T21:38:28.886Z,100423.94
2023-03-11T21:41:00.580Z,100420.50
2023-03-11T21:43:32.263Z,100421.50
2023-03-11T21:46:03.916Z,100410.66
2023-03-11T21:48:35.514Z,100412.63
2023-03-11T21:51:07.228Z,100410.50
2023-03-11T21:53:38.907Z,100408.72
2023-03-11T21:56:10.635Z,100412.97
2023-03-11T21:58:42.217Z,100411.47
2023-03-11T22:01:14.033Z,100411.84
2023-03-11T22:03:47.301Z,100405.94
2023-03-11T22:06:19.194Z,100410.50
2023-03-11T22:08:50.841Z,100410.03
2023-03-11T22:11:22.822Z,100405.63
2023-03-11T22:13:54.459Z,100409.06
2023-03-11T22:16:26.434Z,100410.34
2023-03-11T22:18:58.159Z,100405.78
2023-03-11T22:21:29.683Z,100401.06
2023-03-11T22:24:01.150Z,100394.72
2023-03-11T22:26:32.656Z,100394.41
2023-03-11T22:29:04.709Z,100407.84
2023-03-11T22:31:36.602Z,100394.75
2023-03-11T22:34:08.136Z,100412.13
2023-03-11T22:36:39.897Z,100405.25
2023-03-11T22:39:11.384Z,100400.47
2023-03-11T22:41:42.892Z,100407.19
2023-03-11T22:44:14.372Z,100399.97
2023-03-11T22:46:45.883Z,100412.06
2023-03-11T22:49:17.388Z,100412.91
2023-03-11T22:51:49.131Z,100416.50
2023-03-11T22:54:20.645Z,100414.31
2023-03-11T22:56:52.630Z,100414.31
2023-03-11T22:59:26.983Z,100413.31
2023-03-11T23:01:58.773Z,100416.25
2023-03-11T23:04:30.385Z,100413.31
2023-03-11T23:07:02.093Z,100408.78
2023-03-11T23:09:34.838Z,100411.91
2023-03-11T23:12:07.449Z,100413.41
2023-03-11T23:14:45.058Z,100409.81
2023-03-11T23:17:17.115Z,100414.06
2023-03-11T23:19:48.906Z,100421.09
2023-03-11T23:22:20.632Z,100411.13
2023-03-11T23:24:52.544Z,100409.50
2023-03-11T23:27:24.096Z,100414.72
2023-03-11T23:29:56.024Z,100419.66
2023-03-11T23:32:27.629Z,100447.13
2023-03-11T23:34:59.130Z,100436.66
2023-03-11T23:37:30.626Z,100421.63
2023-03-11T23:40:02.346Z,100421.63
2023-03-11T23:42:34.704Z,100428.50
2023-03-11T23:45:06.488Z,100419.16
2023-03-11T23:47:38.012Z,100427.81
2023-03-11T23:50:09.671Z,100427.81
2023-03-11T23:52:41.150Z,100434.53
2023-03-11T23:55:13.077Z,100424.59
2023-03-11T23:57:44.669Z,100426.06
